Nearby METAR Reports

 

EGNM - Leeds And Bradford, United Kingdom
Distance from station: N 11mi, 18km
Updated: 25/10/2021 00:20
Clear
Clear
 Wind from SSW
Wind: SSW 12 mph , 19 km/h
Temperature: 10°C
Wind Chill: 7°C
Dew Point: 9°C
Humidity: 94%
Barometer: 1009 hPa
Summary: Clear
Visibility: greater than 7 miles , 10 km
2021/10/25 00:20 EGNM 250020Z 21010KT CAVOK 10/09 Q1009
EGXU - Linton-On-Ouse, United Kingdom
Distance from station: NNE 28mi, 45km
Updated: 27/09/2021 00:50
NOT Current
Partly cloudy
Partly cloudy
 Wind from SW
Wind: SW 5 mph , 7 km/h
Temperature: 15°C
Dew Point: 14°C
Humidity: 94%
Barometer: 1000 hPa
Clouds: Partly cloudy
Visibility: 6 miles , 10 km
Cloud details: Mostly cloudy 1250 m
Partly cloudy 1524 m
2021/09/27 00:50 EGXU 270050Z 23004KT 9999 BKN041 SCT050 15/14 Q1000 RMK BLU
 
EGCN - Doncaster Sheffield, United Kingdom
Distance from station: ESE 30mi, 45km
Updated: 25/10/2021 00:20
Clear
Clear
 Wind from SSW
Wind: SSW 17 mph , 28 km/h
Temperature: 11°C
Dew Point: 10°C
Humidity: 94%
Barometer: 1012 hPa
Summary: Clear
Visibility: greater than 7 miles , 10 km
2021/10/25 00:20 EGCN 250020Z 20015KT CAVOK 11/10 Q1012
EGXZ - Topcliffe RAF, United Kingdom
Distance from station: NNE 36mi, 57km
Updated: 24/10/2021 23:50
Clear
Clear
 Wind from S
Wind: S 12 mph , 19 km/h
Temperature: 11°C
Dew Point: 9°C
Humidity: 88%
Barometer: 1009 hPa
Clouds: Clear
Visibility: 6 miles , 10 km
2021/10/24 23:50 EGXZ 242350Z AUTO 19010KT 9999 NCD 11/09 Q1009
 
EGCC - Manchester Intl, United Kingdom
Distance from station: SW 36mi, 58km
Updated: 25/10/2021 00:20
Clear
Clear
 Wind from S
Wind: S 8 mph , 13 km/h
Temperature: 11°C
Dew Point: 9°C
Humidity: 88%
Barometer: 1010 hPa
Clouds: Clear
Visibility: 6 miles , 10 km
2021/10/25 00:20 EGCC 250020Z AUTO 19007KT 160V230 9999 NCD 11/09 Q1010
EGXE - Leeming RAF, United Kingdom
Distance from station: N 40mi, 65km
Updated: 24/10/2021 23:50
Clear
Clear
 Wind from SSW
Wind: SSW 12 mph , 19 km/h
Temperature: 11°C
Dew Point: 9°C
Humidity: 88%
Barometer: 1009 hPa
Clouds: Clear
Visibility: 6 miles , 10 km
2021/10/24 23:50 EGXE 242350Z AUTO 20010KT 9999 NCD 11/09 Q1009